Hudson, NH

10:56 AM EST on March 02, 2015 (GMT -0500)
APRSWXNET Nashua NH US | Change Station
CLOSE
Current Station
Personal Weather Station
Location: Nashua, NH
Elevation: 200 ft
Nearby Weather Stations

Elev 200 ft 42.78 °N, 71.46 °W | Updated 30 minutes ago

Overcast
Overcast
33 °F
Feels Like 33 °F
N
3
Wind Variable Wind from ESE
Gusts 16.0 mph

Today
High -- | Low -- °F
--% Chance of Precip.
Yesterday
High -- | Low -- °F
Precip. -- in
6:20 AM 5:36 PM
Waxing Gibbous, 92% visible
Pressure 30.72 in
Visibility 10.0 miles
Clouds Mostly Cloudy 4000 ft
Overcast 4900 ft
Windchill 33 °F
Dew Point 22 °F
Humidity 64%
Rainfall 0.00 in
Snow Depth Not available.
UV 1 out of 12
Pollen .30 out of 12
Air Quality Not available.
Flu Activity Not available.
METAR KASH 021551Z 29017G25KT 10SM BKN040 OVC049 01/M08 A2996 RMK AO2 T00051077 SLP402 $

More Conditions Fewer Conditions

Pressure 30.72 in
Visibility 10.0 miles
Clouds Mostly Cloudy 4000 ft
Overcast 4900 ft
Windchill 33 °F
Dew Point 22 °F
Humidity 64%
Rainfall 0.00 in
Snow Depth Not available.
UV 1 out of 12
Pollen .30 out of 12
Air Quality Not available.
Flu Activity Not available.
METAR KASH 021551Z 29017G25KT 10SM BKN040 OVC049 01/M08 A2996 RMK AO2 T00051077 SLP402 $

More Conditions Fewer Conditions

10-Day Weather Forecast

Almanac

Astronomy

Mar. 02, 2015 Rise Set
Actual Time
Civil Twilight
Nautical Twilight
Astronomical Twilight
Moon
Length of Visible Light
Length of Day
Tomorrow will be .
, % of the Moon is Illuminated

Today's Extremes

State Highs State Lows

Community

WunderPhotos

Upload Photos

1,801,823 photos uploaded!

WunderBlogs® & News

Nearby

Air Quality

  Air Quality AQ Index Pollutant
Not available.

Snow Depth

Station Depth Elevation

Earthquake Activity

City Distance Mag. Time & Date
Minimum magnitude displayed is 2.5.

Coastal Water Temperatures

Place Temperature

Nearby Weather Stations